Time;durP1;ratioP1;P1;durP2;ratioP2;P2;SDS_P1;SDS_P2;PMS_P1;PMS_P2;Temp;Humidity;BMP_temperature;BMP_pressure;BME280_temperature;BME280_humidity;BME280_pressure;Samples;Min_cycle;Max_cycle;Signal;HPM_P1;HPM_P2
2022/05/16 00:00:29;;;;;;;5.00;1.95;;;;;;;8.21;100.00;101636.56;4961456;28;20286;-72
2022/05/16 00:02:59;;;;;;;6.17;2.23;;;;;;;8.20;100.00;101644.69;4964261;28;20039;-75
2022/05/16 00:05:25;;;;;;;4.05;2.03;;;;;;;8.19;100.00;101649.16;4949439;28;20041;-72
2022/05/16 00:07:52;;;;;;;4.72;1.75;;;;;;;8.12;100.00;101633.81;4965455;28;20038;-75
2022/05/16 00:10:17;;;;;;;7.30;2.22;;;;;;;8.06;100.00;101632.50;4967394;28;20042;-75
2022/05/16 00:12:43;;;;;;;3.80;2.23;;;;;;;8.05;100.00;101636.09;4982616;28;20042;-75
2022/05/16 00:15:11;;;;;;;4.57;2.25;;;;;;;8.00;100.00;101639.13;4953219;28;20034;-74
2022/05/16 00:17:36;;;;;;;5.18;2.42;;;;;;;7.94;100.00;101639.66;4969081;28;20419;-73
2022/05/16 00:20:03;;;;;;;8.80;2.60;;;;;;;7.94;100.00;101647.63;4968773;28;20034;-75
2022/05/16 00:22:28;;;;;;;6.78;2.10;;;;;;;7.86;100.00;101634.09;4968840;28;20042;-73
2022/05/16 00:24:54;;;;;;;14.23;6.17;;;;;;;7.92;100.00;101646.06;4969933;28;20064;-75
2022/05/16 00:27:20;;;;;;;13.48;4.43;;;;;;;7.91;100.00;101642.53;4968536;28;20415;-73
2022/05/16 00:29:45;;;;;;;7.97;4.60;;;;;;;7.87;100.00;101643.78;4983346;28;20069;-75
2022/05/16 00:32:13;;;;;;;10.15;3.47;;;;;;;7.85;100.00;101650.19;4969930;28;20065;-75
2022/05/16 00:34:39;;;;;;;10.57;3.72;;;;;;;7.87;100.00;101641.13;4969890;28;20033;-74
2022/05/16 00:37:04;;;;;;;5.75;3.03;;;;;;;7.83;100.00;101642.31;4968729;28;20113;-73
2022/05/16 00:39:31;;;;;;;6.63;2.90;;;;;;;7.78;100.00;101639.19;4967867;28;20031;-74
2022/05/16 00:41:56;;;;;;;4.78;2.35;;;;;;;7.77;100.00;101640.13;4968230;28;20027;-75
2022/05/16 00:44:23;;;;;;;7.17;2.40;;;;;;;7.78;100.00;101641.84;4968982;28;20033;-75
2022/05/16 00:46:50;;;;;;;6.60;2.28;;;;;;;7.77;100.00;101646.31;4968746;28;20039;-72
2022/05/16 00:49:29;;;;;;;3.63;2.05;;;;;;;7.71;100.00;101644.16;4984547;28;20030;-75
2022/05/16 00:51:57;;;;;;;6.65;2.08;;;;;;;7.71;100.00;101645.97;4969536;28;20238;-75
2022/05/16 00:54:42;;;;;;;6.85;3.28;;;;;;;7.70;100.00;101641.59;4969797;28;20027;-75
2022/05/16 00:57:15;;;;;;;5.13;2.00;;;;;;;7.69;100.00;101650.56;4963112;28;20708;-75
2022/05/16 01:00:03;;;;;;;7.63;2.90;;;;;;;7.66;100.00;101646.31;4968130;28;20066;-75
2022/05/16 01:05:15;;;;;;;4.03;1.67;;;;;;;7.64;100.00;101655.41;4961497;28;20058;-75
2022/05/16 01:07:43;;;;;;;4.70;2.67;;;;;;;7.59;100.00;101639.81;4968196;28;20030;-75
2022/05/16 01:10:12;;;;;;;9.30;3.42;;;;;;;7.53;100.00;101637.63;4949848;28;20125;-74
2022/05/16 01:12:41;;;;;;;5.95;2.40;;;;;;;7.49;100.00;101641.47;4963330;28;20030;-75
2022/05/16 01:15:11;;;;;;;5.93;2.00;;;;;;;7.41;100.00;101647.41;4967754;28;20033;-75
2022/05/16 01:17:37;;;;;;;9.50;2.22;;;;;;;7.41;100.00;101647.41;4966928;28;20508;-75
2022/05/16 01:20:04;;;;;;;3.60;1.67;;;;;;;7.39;100.00;101655.47;4950448;28;20073;-74
2022/05/16 01:22:34;;;;;;;4.25;2.20;;;;;;;7.44;100.00;101651.63;4973709;28;20039;-72
2022/05/16 01:25:05;;;;;;;7.88;2.80;;;;;;;7.45;100.00;101632.94;4966933;28;20050;-72
2022/05/16 01:27:52;;;;;;;4.47;1.95;;;;;;;7.41;100.00;101636.78;4969212;28;20042;-75
2022/05/16 01:30:23;;;;;;;5.75;1.88;;;;;;;7.41;100.00;101626.16;4958893;28;20045;-72
2022/05/16 01:32:49;;;;;;;5.18;2.47;;;;;;;7.36;100.00;101630.97;4965397;28;20039;-74
2022/05/16 01:35:27;;;;;;;6.82;2.17;;;;;;;7.39;100.00;101625.41;4967035;28;20051;-73
2022/05/16 01:40:37;;;;;;;3.25;1.60;;;;;;;7.32;100.00;101626.88;4965673;28;20069;-73
2022/05/16 01:43:04;;;;;;;6.80;2.22;;;;;;;7.34;100.00;101630.25;4965239;28;20530;-73
2022/05/16 01:45:30;;;;;;;6.97;3.38;;;;;;;7.33;100.00;101636.56;4977757;28;20047;-72
2022/05/16 01:47:55;;;;;;;7.15;1.95;;;;;;;7.31;100.00;101635.81;4980421;28;20480;-76
2022/05/16 01:50:21;;;;;;;6.35;2.45;;;;;;;7.27;100.00;101623.72;4976463;28;20101;-73
2022/05/16 01:52:47;;;;;;;5.63;2.30;;;;;;;7.34;100.00;101633.75;4965378;28;20030;-74
2022/05/16 01:55:12;;;;;;;4.73;2.20;;;;;;;7.37;100.00;101640.63;4981331;28;20034;-75
2022/05/16 01:57:39;;;;;;;5.70;2.43;;;;;;;7.36;100.00;101633.66;4964110;28;20456;-75
2022/05/16 02:00:07;;;;;;;4.00;2.30;;;;;;;7.34;100.00;101630.25;4960040;28;20069;-75
2022/05/16 02:02:39;;;;;;;7.35;2.20;;;;;;;7.31;100.00;101625.19;4962668;28;20035;-76
2022/05/16 02:05:05;;;;;;;3.45;1.95;;;;;;;7.31;100.00;101626.03;4949273;28;20062;-75
2022/05/16 02:07:30;;;;;;;3.47;1.98;;;;;;;7.29;100.00;101624.47;4971758;28;20061;-76
2022/05/16 02:09:55;;;;;;;5.73;2.07;;;;;;;7.32;100.00;101625.06;4979350;28;20411;-76
2022/05/16 02:12:21;;;;;;;11.40;2.60;;;;;;;7.42;100.00;101634.97;4980507;28;20038;-76
2022/05/16 02:14:46;;;;;;;5.40;2.33;;;;;;;7.36;100.00;101626.50;4963674;28;20350;-76
2022/05/16 02:17:11;;;;;;;8.23;4.20;;;;;;;7.39;100.00;101617.44;4964095;28;20082;-75
2022/05/16 02:19:37;;;;;;;6.10;2.93;;;;;;;7.38;100.00;101618.44;4963056;28;20046;-76
2022/05/16 02:24:46;;;;;;;6.45;2.22;;;;;;;7.45;100.00;101618.81;4979168;28;20278;-76
2022/05/16 02:27:16;;;;;;;6.27;2.77;;;;;;;7.47;100.00;101624.81;4964118;28;20431;-75
2022/05/16 02:29:42;;;;;;;7.25;2.60;;;;;;;7.44;100.00;101606.47;4979303;28;20035;-76
2022/05/16 02:32:08;;;;;;;9.63;3.00;;;;;;;7.49;100.00;101602.50;4965091;28;20097;-76
2022/05/16 02:34:34;;;;;;;;;;;;;;;7.49;100.00;101610.47;4963660;28;20049;-72
2022/05/16 02:36:59;;;;;;;;;;;;;;;7.47;100.00;101601.78;4965306;28;19918;-73
2022/05/16 02:39:25;;;;;;;7.93;3.60;;;;;;;7.51;100.00;101605.84;4975921;28;19914;-75
2022/05/16 02:41:51;;;;;;;6.78;3.47;;;;;;;7.66;100.00;101610.94;4963584;28;20027;-75
2022/05/16 02:44:16;;;;;;;9.07;4.03;;;;;;;7.63;100.00;101603.19;4959537;28;20035;-75
2022/05/16 02:46:42;;;;;;;9.33;3.83;;;;;;;7.64;100.00;101603.06;4965131;28;20038;-74
2022/05/16 02:49:08;;;;;;;16.65;4.72;;;;;;;7.85;100.00;101608.47;4964847;28;20031;-74
2022/05/16 02:51:33;;;;;;;9.20;4.43;;;;;;;7.99;100.00;101600.22;4963333;28;20023;-74
2022/05/16 02:53:59;;;;;;;11.80;4.83;;;;;;;8.02;100.00;101604.44;4964033;28;20034;-71
2022/05/16 02:56:25;;;;;;;9.97;4.37;;;;;;;8.11;100.00;101602.88;4963755;28;20027;-74
2022/05/16 02:58:50;;;;;;;17.85;6.13;;;;;;;8.07;100.00;101604.91;4978852;28;20045;-74
2022/05/16 03:01:15;;;;;;;11.83;4.63;;;;;;;8.13;100.00;101600.94;4947409;28;20171;-76
2022/05/16 03:03:42;;;;;;;16.93;4.90;;;;;;;8.16;100.00;101606.00;4964410;28;20415;-76
2022/05/16 03:06:08;;;;;;;15.20;4.63;;;;;;;8.28;100.00;101598.81;4973550;28;20457;-76
2022/05/16 03:08:34;;;;;;;;;;;;;;;8.51;100.00;101602.25;4980120;28;20479;-72
2022/05/16 03:11:00;;;;;;;;;;;;;;;8.61;100.00;101600.50;4980025;28;19910;-75
2022/05/16 03:13:25;;;;;;;11.70;5.38;;;;;;;8.72;100.00;101588.97;4965004;28;19937;-75
2022/05/16 03:15:51;;;;;;;12.03;5.60;;;;;;;8.79;100.00;101595.47;4962794;28;20373;-75
2022/05/16 03:18:16;;;;;;;15.48;5.57;;;;;;;8.86;100.00;101594.81;4964031;28;20041;-74
2022/05/16 03:20:42;;;;;;;14.63;5.50;;;;;;;8.93;100.00;101599.63;4962466;28;20023;-76
2022/05/16 03:23:07;;;;;;;16.00;5.10;;;;;;;8.98;100.00;101592.06;4972955;28;20480;-76
2022/05/16 03:25:33;;;;;;;15.00;5.37;;;;;;;9.03;100.00;101592.50;4965018;28;20073;-74
2022/05/16 03:27:58;;;;;;;14.50;6.40;;;;;;;9.13;100.00;101597.88;4963163;28;20089;-76
2022/05/16 03:30:24;;;;;;;16.00;5.82;;;;;;;9.21;100.00;101588.28;4979421;28;20134;-71
2022/05/16 03:32:50;;;;;;;10.98;5.68;;;;;;;9.21;100.00;101579.44;4978480;28;20042;-75
2022/05/16 03:35:16;;;;;;;20.00;6.00;;;;;;;9.34;100.00;101582.72;4979609;28;20023;-74
2022/05/16 03:37:41;;;;;;;18.85;5.90;;;;;;;9.38;100.00;101577.97;4977451;28;20139;-74
2022/05/16 03:42:52;;;;;;;18.67;5.57;;;;;;;9.56;100.00;101575.50;4963875;28;20555;-74
2022/05/16 03:45:17;;;;;;;14.60;6.60;;;;;;;9.59;100.00;101578.72;4963319;28;20027;-76
2022/05/16 03:47:43;;;;;;;16.77;6.95;;;;;;;9.63;100.00;101572.16;4967346;28;20290;-76
2022/05/16 03:50:10;;;;;;;12.98;6.22;;;;;;;9.69;100.00;101576.94;4985590;28;20101;-72
2022/05/16 03:52:38;;;;;;;14.05;6.82;;;;;;;9.71;100.00;101566.97;4968542;28;20038;-76
2022/05/16 03:55:04;;;;;;;15.85;6.82;;;;;;;9.80;100.00;101572.47;4951981;28;20046;-76
2022/05/16 03:57:30;;;;;;;20.30;6.97;;;;;;;9.85;100.00;101570.22;4967983;28;20113;-74
2022/05/16 03:59:55;;;;;;;14.43;6.23;;;;;;;9.85;100.00;101560.41;4984981;28;20015;-76
2022/05/16 04:02:21;;;;;;;19.08;7.60;;;;;;;9.87;100.00;101561.09;4968949;28;20034;-76
2022/05/16 04:04:47;;;;;;;12.73;7.37;;;;;;;9.87;100.00;101546.94;4969601;28;20061;-76
2022/05/16 04:07:12;;;;;;;17.33;7.87;;;;;;;9.95;100.00;101544.44;4969467;28;20387;-72
2022/05/16 04:09:37;;;;;;;11.20;6.73;;;;;;;9.98;100.00;101549.47;4967337;28;20051;-76
2022/05/16 04:12:03;;;;;;;18.73;6.80;;;;;;;9.98;100.00;101546.81;4954493;28;20027;-76
2022/05/16 04:14:29;;;;;;;13.50;7.07;;;;;;;10.03;100.00;101536.56;4985741;28;20458;-74
2022/05/16 04:16:54;;;;;;;16.33;7.17;;;;;;;10.07;100.00;101545.97;4969828;28;20155;-75
2022/05/16 04:19:20;;;;;;;21.67;8.27;;;;;;;10.13;100.00;101541.91;4968821;28;20042;-76
2022/05/16 04:21:45;;;;;;;10.13;6.33;;;;;;;10.23;100.00;101531.22;4984349;28;20692;-75
2022/05/16 04:24:11;;;;;;;22.47;7.70;;;;;;;10.18;100.00;101522.81;4969276;28;20038;-75
2022/05/16 04:26:37;;;;;;;11.47;5.77;;;;;;;10.24;100.00;101532.91;4967858;28;20039;-75
2022/05/16 04:29:03;;;;;;;12.43;5.97;;;;;;;10.18;100.00;101534.31;4954577;28;20034;-76
2022/05/16 04:31:28;;;;;;;13.90;6.82;;;;;;;10.26;100.00;101537.13;4985382;28;20069;-76
2022/05/16 04:33:53;;;;;;;13.60;6.00;;;;;;;10.31;100.00;101545.59;4967928;28;20067;-73
2022/05/16 04:36:19;;;;;;;13.77;5.57;;;;;;;10.47;100.00;101539.69;4985538;28;20046;-72
2022/05/16 04:38:44;;;;;;;14.23;5.80;;;;;;;10.56;100.00;101540.66;4967947;28;20026;-75
2022/05/16 04:43:54;;;;;;;18.70;6.13;;;;;;;10.69;100.00;101535.00;4969632;28;20070;-73
2022/05/16 04:46:19;;;;;;;12.20;6.10;;;;;;;10.70;100.00;101529.53;4964257;28;20074;-76
2022/05/16 04:48:45;;;;;;;17.43;7.13;;;;;;;10.72;100.00;101529.34;4969956;28;20104;-74
2022/05/16 04:51:11;;;;;;;12.87;5.73;;;;;;;10.73;100.00;101531.06;4969218;28;20015;-77
2022/05/16 04:53:37;;;;;;;;;;;;;;;10.68;100.00;101536.84;4969162;28;20046;-73
2022/05/16 04:56:02;;;;;;;;;;;;;;;10.62;100.00;101541.91;4973929;28;20011;-75
2022/05/16 04:58:28;;;;;;;15.90;4.90;;;;;;;10.60;100.00;101522.50;4970069;28;19973;-73
2022/05/16 05:00:53;;;;;;;16.53;5.93;;;;;;;10.62;100.00;101531.22;4968131;28;20038;-76
2022/05/16 05:03:18;;;;;;;10.40;5.60;;;;;;;10.65;100.00;101534.47;4967983;28;20407;-76
2022/05/16 05:05:44;;;;;;;11.03;5.93;;;;;;;10.73;100.00;101533.72;4967854;28;20129;-73
2022/05/16 05:08:09;;;;;;;17.63;5.77;;;;;;;10.77;100.00;101522.63;4969248;28;20038;-73
2022/05/16 05:16:10;;;;;;;11.52;4.75;;;;;;;11.10;100.00;101515.03;4978537;28;20121;-74
2022/05/16 05:18:38;;;;;;;12.32;5.07;;;;;;;11.40;100.00;101511.25;4963481;28;20412;-74
2022/05/16 05:21:04;;;;;;;10.75;5.00;;;;;;;11.58;100.00;101494.38;4967661;28;20026;-74
2022/05/16 05:23:29;;;;;;;14.30;5.33;;;;;;;12.25;100.00;101490.34;4969011;28;20046;-74
2022/05/16 05:25:57;;;;;;;13.05;4.53;;;;;;;12.23;100.00;101446.84;4967041;28;20054;-74
2022/05/16 05:28:22;;;;;;;10.55;4.10;;;;;;;12.27;100.00;101438.47;4951634;28;20050;-74
2022/05/16 05:30:47;;;;;;;12.80;5.23;;;;;;;12.25;100.00;101431.47;4969959;28;20033;-74
2022/05/16 05:33:13;;;;;;;9.80;4.20;;;;;;;13.04;100.00;101439.41;4979684;28;20841;-75
2022/05/16 05:35:38;;;;;;;10.67;4.07;;;;;;;14.24;100.00;101402.34;4972431;28;20038;-75
2022/05/16 05:38:04;;;;;;;7.70;3.37;;;;;;;14.74;100.00;101299.94;4967381;28;20033;-75
2022/05/16 05:40:29;;;;;;;12.20;3.60;;;;;;;15.78;100.00;101280.66;4966614;28;20031;-74
2022/05/16 05:42:55;;;;;;;12.47;4.90;;;;;;;15.76;97.56;101204.66;4969268;28;20061;-75
2022/05/16 05:45:20;;;;;;;11.07;3.63;;;;;;;15.72;92.97;101161.13;4974148;28;20048;-75
2022/05/16 05:47:45;;;;;;;10.67;3.40;;;;;;;16.24;91.06;101207.75;4975085;28;20062;-75
2022/05/16 05:50:12;;;;;;;5.40;2.50;;;;;;;16.53;85.86;101147.56;4968547;28;20631;-75
2022/05/16 05:52:38;;;;;;;8.93;3.13;;;;;;;16.14;86.06;101153.38;4972169;28;20049;-75
2022/05/16 05:55:04;;;;;;;8.23;3.22;;;;;;;15.95;87.68;101169.09;4968218;28;20029;-74
2022/05/16 05:57:29;;;;;;;14.73;3.70;;;;;;;14.32;94.62;101188.28;4968560;28;20042;-75
2022/05/16 05:59:56;;;;;;;8.03;2.97;;;;;;;15.18;97.62;101299.31;4968345;28;20027;-75
2022/05/16 06:02:23;;;;;;;6.18;2.75;;;;;;;15.39;93.08;101247.53;4967966;28;20109;-75
2022/05/16 06:04:48;;;;;;;;;;;;;;;15.60;89.13;101214.53;4967235;28;20019;-75
2022/05/16 06:07:14;;;;;;;;;;;;;;;15.68;86.84;101216.31;4968632;28;19921;-75
2022/05/16 06:09:40;;;;;;;7.38;2.45;;;;;;;15.50;84.42;101167.38;4964873;28;19910;-75
2022/05/16 06:12:06;;;;;;;5.70;2.37;;;;;;;15.85;83.14;101195.47;4966652;28;20031;-75
2022/05/16 06:14:32;;;;;;;3.63;2.28;;;;;;;16.28;77.40;101125.53;4967224;28;20031;-75
2022/05/16 06:16:58;;;;;;;6.43;2.50;;;;;;;16.22;75.94;101094.84;4983068;28;20073;-75
2022/05/16 06:19:24;;;;;;;5.55;2.20;;;;;;;16.88;74.73;101153.97;4963557;28;20058;-74
2022/05/16 06:21:49;;;;;;;5.53;2.05;;;;;;;17.48;70.51;101092.31;4965075;28;20047;-76
2022/05/16 06:27:00;;;;;;;5.72;1.90;;;;;;;17.91;68.35;101124.53;4960892;28;20125;-75
2022/05/16 06:29:26;;;;;;;5.93;2.30;;;;;;;17.65;68.36;101117.13;4968039;28;20062;-75
2022/05/16 06:31:52;;;;;;;4.97;2.33;;;;;;;18.23;66.22;101130.25;4964725;28;20042;-76
2022/05/16 06:34:19;;;;;;;3.90;2.10;;;;;;;18.09;63.42;100998.84;4966579;28;20034;-76
2022/05/16 06:36:44;;;;;;;5.22;2.60;;;;;;;17.77;64.36;101044.47;4966215;28;20046;-75
2022/05/16 06:39:10;;;;;;;8.53;2.13;;;;;;;17.98;64.45;101088.59;4967532;28;20079;-75
2022/05/16 06:41:35;;;;;;;7.33;1.87;;;;;;;17.22;64.78;101022.00;4966210;28;20033;-75
2022/05/16 06:44:01;;;;;;;6.23;2.00;;;;;;;17.58;65.76;101123.50;4966321;28;20468;-75
2022/05/16 06:46:27;;;;;;;11.95;2.65;;;;;;;16.30;68.10;101041.84;4966429;28;20109;-75
2022/05/16 06:48:52;;;;;;;6.55;2.33;;;;;;;16.26;69.78;101100.66;4967321;28;20472;-75
2022/05/16 06:51:17;;;;;;;4.60;1.83;;;;;;;16.22;70.91;101123.59;4950146;28;20177;-75
2022/05/16 06:53:43;;;;;;;5.73;1.93;;;;;;;16.85;69.51;101162.41;4967105;28;20133;-74
2022/05/16 06:56:09;;;;;;;8.67;1.97;;;;;;;16.74;67.94;101089.28;4966253;28;20039;-75
2022/05/16 06:58:35;;;;;;;21.23;5.97;;;;;;;17.54;68.75;101235.63;4966392;28;20601;-75
2022/05/16 07:01:01;;;;;;;25.23;5.97;;;;;;;17.71;65.51;101156.81;4965983;28;20038;-75
2022/05/16 07:03:26;;;;;;;10.63;2.95;;;;;;;18.04;62.17;101091.31;4966126;28;20027;-75
2022/05/16 07:05:52;;;;;;;4.90;2.30;;;;;;;17.53;60.01;100935.13;4965406;28;20505;-75
2022/05/16 07:08:19;;;;;;;5.95;2.65;;;;;;;17.32;64.00;101078.31;4964510;28;20034;-75
2022/05/16 07:10:48;;;;;;;9.65;2.83;;;;;;;18.08;62.63;101146.63;4966174;28;20042;-75
2022/05/16 07:13:14;;;;;;;9.38;2.47;;;;;;;18.69;60.32;101115.16;4967163;28;20019;-75
2022/05/16 07:15:39;;;;;;;10.45;2.20;;;;;;;17.76;61.32;101037.38;4965946;28;20054;-75
2022/05/16 07:18:05;;;;;;;6.78;2.40;;;;;;;18.59;61.28;101160.69;4967206;28;20026;-75
2022/05/16 07:20:30;;;;;;;5.00;1.83;;;;;;;18.58;60.87;101131.97;4965891;28;20090;-75
2022/05/16 07:22:58;;;;;;;7.00;1.80;;;;;;;19.31;60.49;101192.38;4961866;28;20554;-76
2022/05/16 07:25:28;;;;;;;7.43;1.95;;;;;;;19.06;57.79;101047.94;4965829;28;20205;-74
2022/05/16 07:27:57;;;;;;;5.72;1.67;;;;;;;18.96;57.57;101037.53;4965996;28;20126;-74
2022/05/16 07:30:30;;;;;;;12.02;3.17;;;;;;;19.11;58.96;101135.56;4967396;28;20472;-75
2022/05/16 07:32:56;;;;;;;6.18;2.10;;;;;;;18.28;58.11;100989.09;4964536;28;20035;-75
2022/05/16 07:35:26;;;;;;;6.70;2.08;;;;;;;17.86;57.89;100937.97;4966881;28;20050;-75
2022/05/16 07:37:53;;;;;;;6.47;1.98;;;;;;;17.59;59.08;100974.84;4965786;28;20047;-75
2022/05/16 07:40:21;;;;;;;5.35;2.15;;;;;;;17.71;60.02;101039.88;4967104;28;20026;-74
2022/05/16 07:42:47;;;;;;;3.15;1.88;;;;;;;17.87;59.10;101020.63;4964073;28;20042;-75
2022/05/16 07:45:13;;;;;;;5.03;2.20;;;;;;;17.81;60.72;101066.53;4962564;28;20023;-75
2022/05/16 07:47:38;;;;;;;5.32;1.92;;;;;;;18.08;60.47;101110.69;4947708;28;20050;-74
2022/05/16 07:50:05;;;;;;;10.27;2.93;;;;;;;17.76;59.83;101047.38;4964981;28;20026;-74
2022/05/16 07:52:30;;;;;;;5.47;2.28;;;;;;;18.13;60.58;101133.34;4964962;28;20031;-75
2022/05/16 07:54:56;;;;;;;3.78;2.03;;;;;;;18.20;58.74;101082.00;4948982;28;20520;-75
2022/05/16 07:57:22;;;;;;;4.10;2.30;;;;;;;18.17;57.46;101019.44;4946403;29;20063;-76
2022/05/16 07:59:48;;;;;;;7.18;2.35;;;;;;;17.93;58.18;101035.19;4962582;28;20030;-76
2022/05/16 08:02:14;;;;;;;6.90;2.05;;;;;;;18.85;57.44;101132.88;4963757;28;20043;-73
2022/05/16 08:04:40;;;;;;;7.45;2.25;;;;;;;18.31;57.84;101064.38;4960681;28;20038;-75
2022/05/16 08:07:06;;;;;;;5.28;2.28;;;;;;;17.97;56.85;100968.91;4966294;28;20551;-76
2022/05/16 08:12:31;;;;;;;7.25;2.00;;;;;;;18.73;57.44;101128.06;4960536;28;20367;-76
2022/05/16 08:14:58;;;;;;;4.72;1.95;;;;;;;19.13;56.72;101143.50;4966412;28;20491;-75
2022/05/16 08:17:24;;;;;;;2.90;1.58;;;;;;;19.82;55.65;101186.28;4965849;28;20034;-76
2022/05/16 08:19:50;;;;;;;5.63;1.50;;;;;;;19.45;55.47;101111.16;4965012;28;20046;-73
2022/05/16 08:22:17;;;;;;;4.93;2.13;;;;;;;19.20;53.54;100949.44;4964351;28;20538;-76
2022/05/16 08:24:43;;;;;;;4.97;1.83;;;;;;;19.24;55.35;101068.94;4948756;28;20078;-77
2022/05/16 08:27:09;;;;;;;7.22;2.33;;;;;;;19.56;53.77;101040.91;4961795;28;20125;-74
2022/05/16 08:29:34;;;;;;;1.63;1.50;;;;;;;19.86;55.01;101128.97;4962326;28;20431;-75
2022/05/16 08:32:01;;;;;;;8.00;1.83;;;;;;;20.41;53.66;101130.13;4964470;28;20258;-75
2022/05/16 08:34:27;;;;;;;4.05;1.65;;;;;;;19.46;54.59;101028.88;4967401;28;20038;-77
2022/05/16 08:39:52;;;;;;;2.97;1.30;;;;;;;19.77;53.40;101007.31;4969837;28;20073;-77
2022/05/16 08:42:22;;;;;;;6.20;2.10;;;;;;;19.03;54.38;100956.38;4968319;28;20050;-77
2022/05/16 08:44:59;;;;;;;6.47;1.52;;;;;;;18.70;56.38;101014.03;4969770;28;20048;-76
2022/05/16 08:47:53;;;;;;;4.03;1.70;;;;;;;18.67;55.38;100963.09;4965326;28;20042;-76
2022/05/16 08:50:47;;;;;;;8.93;2.63;;;;;;;19.42;53.35;100985.16;4969644;28;20120;-73
2022/05/16 08:53:16;;;;;;;4.78;2.45;;;;;;;20.78;52.55;101129.50;4966052;28;20415;-76
2022/05/16 08:55:49;;;;;;;4.45;2.00;;;;;;;19.71;53.75;101037.94;4968795;28;20061;-75
2022/05/16 08:58:34;;;;;;;6.65;1.95;;;;;;;20.80;52.49;101138.25;4968429;28;20053;-77
2022/05/16 09:01:05;;;;;;;5.10;1.67;;;;;;;21.26;50.87;101072.69;4960817;28;20042;-76
2022/05/16 09:03:55;;;;;;;8.63;2.00;;;;;;;21.05;51.59;101081.25;4968363;28;20081;-76
2022/05/16 09:06:26;;;;;;;5.22;2.00;;;;;;;20.58;51.94;101005.72;4968567;28;20062;-77
2022/05/16 09:08:56;;;;;;;4.05;1.73;;;;;;;19.66;53.66;100966.50;4951914;28;20035;-75
2022/05/16 09:11:34;;;;;;;5.85;1.80;;;;;;;19.00;56.10;100994.69;4968537;28;20523;-76
2022/05/16 09:14:07;;;;;;;5.32;2.00;;;;;;;19.98;56.47;101170.59;4976443;28;20496;-77
2022/05/16 09:17:00;;;;;;;6.28;1.98;;;;;;;18.92;56.77;101025.50;4968183;28;20035;-75
2022/05/16 09:19:41;;;;;;;7.72;2.30;;;;;;;19.16;56.83;101032.09;4967903;28;20073;-77
2022/05/16 09:22:12;;;;;;;4.47;1.70;;;;;;;19.80;54.92;101058.31;4967791;28;20038;-76
2022/05/16 09:24:45;;;;;;;6.35;2.00;;;;;;;19.07;56.03;100987.38;4967364;28;20073;-74
2022/05/16 09:30:18;;;;;;;6.18;2.15;;;;;;;20.47;53.13;101057.09;4967893;28;20480;-76
2022/05/16 09:32:50;;;;;;;7.57;2.83;;;;;;;21.24;54.19;101231.44;4962807;28;20051;-74
2022/05/16 09:35:54;;;;;;;5.57;1.63;;;;;;;21.38;51.26;101059.19;4967602;28;20042;-75
2022/05/16 09:38:20;;;;;;;6.68;1.98;;;;;;;21.49;50.59;101035.88;4928838;28;20061;-76
2022/05/16 09:41:09;;;;;;;9.70;2.65;;;;;;;20.14;52.33;100912.63;4969080;28;20042;-76
2022/05/16 09:43:41;;;;;;;5.30;2.00;;;;;;;20.60;53.86;101101.25;4967882;28;20049;-76
2022/05/16 09:46:34;;;;;;;9.82;2.65;;;;;;;19.65;54.27;100952.13;4979630;28;20062;-75
2022/05/16 09:49:11;;;;;;;10.45;2.30;;;;;;;20.41;53.85;101042.53;4962336;28;20055;-75
2022/05/16 09:51:43;;;;;;;5.25;1.85;;;;;;;19.43;57.09;101062.63;4968515;28;20042;-75
2022/05/16 09:54:13;;;;;;;5.75;2.10;;;;;;;19.27;56.25;100982.72;4975053;28;20146;-76
2022/05/16 09:56:50;;;;;;;3.38;1.50;;;;;;;19.95;56.95;101124.97;4971685;28;20595;-75
2022/05/16 09:59:16;;;;;;;6.07;2.50;;;;;;;20.00;54.71;101039.25;4968842;28;20555;-75
2022/05/16 10:01:49;;;;;;;8.32;2.05;;;;;;;19.66;55.59;101043.16;4977983;28;20026;-75
2022/05/16 10:04:18;;;;;;;5.95;2.15;;;;;;;20.41;55.04;101140.16;4976410;28;20038;-75
2022/05/16 10:06:57;;;;;;;5.57;2.10;;;;;;;21.10;53.75;101181.03;4967295;28;20015;-76
2022/05/16 10:09:30;;;;;;;7.13;2.10;;;;;;;20.79;51.29;100966.50;4967249;28;20027;-76
2022/05/16 10:11:55;;;;;;;8.82;3.03;;;;;;;20.63;51.83;100988.78;4981107;28;20488;-75
2022/05/16 10:14:20;;;;;;;6.87;2.30;;;;;;;21.05;50.69;101008.78;4972683;28;20022;-75
2022/05/16 10:16:49;;;;;;;5.77;2.13;;;;;;;21.17;52.42;101109.31;4967151;28;20066;-75
2022/05/16 10:19:18;;;;;;;8.52;2.70;;;;;;;20.75;52.17;101000.53;4968106;28;20022;-75
2022/05/16 10:21:55;;;;;;;8.75;2.40;;;;;;;20.39;53.23;101023.78;4966631;28;20456;-75
2022/05/16 10:24:23;;;;;;;5.43;1.95;;;;;;;21.52;51.87;101127.78;4967916;28;20054;-75
2022/05/16 10:26:51;;;;;;;6.50;2.08;;;;;;;21.66;50.76;101077.69;4966183;28;20448;-76
2022/05/16 10:29:23;;;;;;;7.22;2.45;;;;;;;21.01;51.54;101010.28;4975708;28;20432;-75
2022/05/16 10:34:44;;;;;;;3.88;2.10;;;;;;;20.38;53.75;101034.84;4966678;28;20113;-76
2022/05/16 10:37:10;;;;;;;6.72;2.25;;;;;;;21.76;52.54;101193.97;4967725;28;20053;-76
2022/05/16 10:39:41;;;;;;;6.82;1.85;;;;;;;20.58;53.71;101048.25;4974093;28;20018;-76
2022/05/16 10:42:10;;;;;;;3.90;1.90;;;;;;;21.04;52.25;101058.69;4950351;28;20415;-76
2022/05/16 10:44:44;;;;;;;5.63;2.17;;;;;;;21.42;50.67;100995.25;4963380;28;20031;-76
2022/05/16 10:47:21;;;;;;;9.80;1.90;;;;;;;20.92;51.93;101006.22;4965934;28;20035;-76
2022/05/16 10:50:13;;;;;;;7.60;1.98;;;;;;;21.42;50.05;100981.66;4963219;28;20089;-76
2022/05/16 10:52:43;;;;;;;10.50;2.90;;;;;;;21.36;51.66;101053.13;4947355;28;20722;-76
2022/05/16 10:55:09;;;;;;;8.40;2.72;;;;;;;21.48;50.77;101021.47;4966265;28;20142;-78
2022/05/16 10:58:00;;;;;;;5.50;1.98;;;;;;;22.46;48.98;101092.91;4967267;28;20027;-77
2022/05/16 11:00:56;;;;;;;7.20;2.55;;;;;;;22.70;47.72;101039.34;4947024;29;20039;-76
2022/05/16 11:03:46;;;;;;;7.30;3.67;;;;;;;21.79;49.31;100962.53;4978334;28;20070;-75
2022/05/16 11:06:30;;;;;;;6.93;2.50;;;;;;;22.57;47.91;101006.94;4966207;28;20030;-76
2022/05/16 11:09:18;;;;;;;6.88;1.77;;;;;;;21.26;49.90;100882.63;4973261;28;20118;-76
2022/05/16 11:12:02;;;;;;;5.90;2.33;;;;;;;21.25;50.78;100948.81;4966125;28;20587;-75
2022/05/16 11:15:00;;;;;;;6.80;2.63;;;;;;;22.40;48.18;100963.25;4949748;28;20065;-76
2022/05/16 11:17:45;;;;;;;5.43;2.40;;;;;;;22.01;48.72;100907.63;4963392;28;20035;-76
2022/05/16 11:20:46;;;;;;;5.78;2.63;;;;;;;21.27;49.38;100820.97;4967710;28;20045;-76
2022/05/16 11:23:26;;;;;;;8.63;2.80;;;;;;;23.07;49.73;101147.22;4966354;28;20043;-77
2022/05/16 11:26:23;;;;;;;7.20;2.38;;;;;;;21.99;48.97;100907.06;4966374;28;20039;-75
2022/05/16 11:29:20;;;;;;;7.70;2.38;;;;;;;22.87;48.40;101028.56;4972016;28;20138;-74
2022/05/16 11:31:54;;;;;;;5.35;1.70;;;;;;;23.14;48.14;101050.72;4966059;28;20041;-75
2022/05/16 11:34:52;;;;;;;5.22;2.03;;;;;;;21.46;50.47;100876.91;4966071;28;20068;-77
2022/05/16 11:37:26;;;;;;;9.05;2.38;;;;;;;21.82;50.89;100972.09;4949674;28;20043;-76
2022/05/16 11:39:59;;;;;;;5.40;2.95;;;;;;;21.50;50.48;100888.97;4967264;28;20044;-76
2022/05/16 11:42:52;;;;;;;11.38;2.97;;;;;;;21.61;52.56;101022.34;4967364;28;20038;-75
2022/05/16 11:45:31;;;;;;;10.50;2.70;;;;;;;22.15;51.08;101028.72;4929351;28;20047;-77
2022/05/16 11:48:14;;;;;;;5.70;1.90;;;;;;;22.02;49.44;100912.84;4967365;28;20061;-75
2022/05/16 11:51:10;;;;;;;6.15;2.22;;;;;;;22.55;50.16;101056.13;4966152;28;20054;-75
2022/05/16 11:53:49;;;;;;;6.55;2.65;;;;;;;21.53;51.14;100912.13;4968759;28;20495;-76
2022/05/16 12:02:15;;;;;;;6.88;2.70;;;;;;;22.04;50.54;100961.53;4965785;28;20140;-75
2022/05/16 12:04:47;;;;;;;6.18;2.25;;;;;;;22.75;49.87;101052.25;4967450;28;20066;-75
2022/05/16 12:07:20;;;;;;;7.88;2.72;;;;;;;22.67;49.32;100998.19;4949874;28;20069;-74
2022/05/16 12:09:59;;;;;;;8.52;3.05;;;;;;;21.20;51.89;100878.09;4968990;28;20042;-75
2022/05/16 12:12:34;;;;;;;7.38;2.15;;;;;;;22.55;49.65;100970.97;4970997;28;20114;-77
2022/05/16 12:15:24;;;;;;;4.03;1.88;;;;;;;22.28;50.30;100982.28;4953735;28;20042;-75